KCXE

Chase City Municipal Airport

Chase City, Virginia, USA
METAR KCXE 131115Z AUTO 00000KT 10SM OVC070 M01/M01 A3022 RMK AO1 T10061006
Observed Flight Rules
Dec-13 @ 11:15 UTC (35 minutes ago) Visual Flight Rules
Visibility Clouds
10 miles
  • Overcast at 7,000' AGL
Temperatures Readings
Current -1°C / 30°F
Dewpoint -1°C / 30°F
Humidity 100%
Altimeter 30.22" Hg
Pressure 1023 hPa
Elevation 153
METAR KCXE 131115Z AUTO 00000KT 10SM OVC070 M01/M01 A3022 RMK AO1 T10061006
Observed Flight Rules
Dec-13 @ 11:15 UTC
(35 minutes ago)
VFR
Clouds
  • Overcast at 7,000' AGL
Temperature Dewpoint
-1°C / 30°F -1°C / 30°F
Humidity Altimeter Pressure
100% 30.22" Hg 1023 hPa